TAF KABE
KABE 270520Z 2706/2806 29015G23KT P6SM BKN050 FM270900 29012G19KT P6SM FEW050 FM271400 29015G23KT P6SM SCT250 FM272100 28008KT P6SM BKN250 FM280000 VRB04KT P6SM BKN070=
METAR KABE
WC KABE
WS KABE
WV KABE